<?xml version="1.0" encoding="UTF-8" standalone="no" ?>
<gpx xmlns="http://www.topografix.com/GPX/1/1" xmlns:xsi="http://www.w3.org/2001/XMLSchema-instance" xsi:schemaLocation="http://www.topografix.com/GPX/1/1 http://www.topografix.com/GPX/1/1/gpx.xsd" version="1.1" creator="VisuGPX - https://www.visugpx.com">
  <metadata>
    <name>Circuit des trois chapelles</name>
  </metadata>
  <wpt lat="47.91397" lon="6.8013">
    <ele>615</ele>
    <name><![CDATA[Parking parcours de santé]]></name>
  </wpt>
  <wpt lat="47.9119" lon="6.80194">
    <ele>591</ele>
    <name><![CDATA[Lieu-dit : Pont de Châly]]></name>
  </wpt>
  <wpt lat="47.91066" lon="6.79928">
    <ele>595</ele>
    <name><![CDATA[À gauche carrefour croix Rouge]]></name>
  </wpt>
  <wpt lat="47.90745" lon="6.79972">
    <ele>669</ele>
    <name><![CDATA[Pienot de la Rouauche]]></name>
  </wpt>
  <wpt lat="47.90728" lon="6.79947">
    <ele>672</ele>
    <name><![CDATA[Col (ou Piénot) de la Rouauche]]></name>
  </wpt>
  <wpt lat="47.90054" lon="6.79588">
    <ele>707</ele>
    <name><![CDATA[Abri]]></name>
  </wpt>
  <wpt lat="47.8929" lon="6.80384">
    <ele>762</ele>
    <name><![CDATA[Chapelle des Vés]]></name>
  </wpt>
  <wpt lat="47.89583" lon="6.8118">
    <ele>833</ele>
    <name><![CDATA[Carrefour ]]></name>
  </wpt>
  <wpt lat="47.8997" lon="6.81806">
    <ele>874</ele>
    <name><![CDATA[Cote 872, à gauche ]]></name>
  </wpt>
  <wpt lat="47.90331" lon="6.82127">
    <ele>794</ele>
    <name><![CDATA[Sentier balisé à gauche]]></name>
  </wpt>
  <wpt lat="47.90764" lon="6.83566">
    <ele>815</ele>
    <name><![CDATA[À gauche à l'embranchement]]></name>
  </wpt>
  <wpt lat="47.9113" lon="6.83238">
    <ele>883</ele>
    <name><![CDATA[Carrefour]]></name>
  </wpt>
  <wpt lat="47.9168" lon="6.83291">
    <ele>922</ele>
    <name><![CDATA[Passe du Sècheneux]]></name>
  </wpt>
  <wpt lat="47.9158" lon="6.82743">
    <ele>985</ele>
    <name><![CDATA[Tête des Champs]]></name>
  </wpt>
  <wpt lat="47.91356" lon="6.82158">
    <ele>912</ele>
    <name><![CDATA[Chapelle de la Salette]]></name>
  </wpt>
  <wpt lat="47.91897" lon="6.81482">
    <ele>736</ele>
    <name><![CDATA[Fourche, à gauche]]></name>
  </wpt>
  <wpt lat="47.91508" lon="6.80455">
    <ele>699</ele>
    <name><![CDATA[Chapelle de Pitié]]></name>
  </wpt>
  <wpt lat="47.91439" lon="6.80377">
    <ele>677</ele>
    <name><![CDATA[Chapelle de Pitié]]></name>
  </wpt>
  <wpt lat="47.91402" lon="6.80127">
    <ele>615</ele>
    <name><![CDATA[Parking parcours de santé]]></name>
  </wpt>
  <trk>
    <name><![CDATA[Circuit des trois chapelles]]></name>
    <trkseg>
      <trkpt lat="47.91397" lon="6.8013">
        <ele>615</ele>
        <time>2016-12-06T10:17:32+01:00</time>
      </trkpt>
      <trkpt lat="47.91351" lon="6.80136">
        <ele>607</ele>
        <time>2021-05-20T18:19:42+02:00</time>
      </trkpt>
      <trkpt lat="47.91341" lon="6.80146">
        <ele>607</ele>
        <time>2021-05-20T18:19:47+02:00</time>
      </trkpt>
      <trkpt lat="47.91336" lon="6.80163">
        <ele>607</ele>
        <time>2021-05-20T18:19:52+02:00</time>
      </trkpt>
      <trkpt lat="47.91303" lon="6.80183">
        <ele>605</ele>
        <time>2021-05-20T18:19:57+02:00</time>
      </trkpt>
      <trkpt lat="47.9127" lon="6.80182">
        <ele>599</ele>
        <time>2021-05-20T18:20:02+02:00</time>
      </trkpt>
      <trkpt lat="47.91238" lon="6.80193">
        <ele>595</ele>
        <time>2021-05-20T18:20:07+02:00</time>
      </trkpt>
      <trkpt lat="47.91224" lon="6.80208">
        <ele>595</ele>
        <time>2021-05-20T18:20:12+02:00</time>
      </trkpt>
      <trkpt lat="47.91205" lon="6.80235">
        <ele>594</ele>
        <time>2021-05-20T18:20:17+02:00</time>
      </trkpt>
      <trkpt lat="47.91186" lon="6.80241">
        <ele>592</ele>
        <time>2021-05-20T18:20:22+02:00</time>
      </trkpt>
      <trkpt lat="47.91188" lon="6.80222">
        <ele>591</ele>
        <time>2021-05-20T18:20:27+02:00</time>
      </trkpt>
      <trkpt lat="47.9119" lon="6.80194">
        <ele>591</ele>
        <time>2021-05-20T18:20:32+02:00</time>
      </trkpt>
      <trkpt lat="47.91183" lon="6.80189">
        <ele>590</ele>
        <time>2021-05-20T18:20:37+02:00</time>
      </trkpt>
      <trkpt lat="47.91175" lon="6.80192">
        <ele>589</ele>
        <time>2021-05-20T18:20:42+02:00</time>
      </trkpt>
      <trkpt lat="47.91162" lon="6.80212">
        <ele>589</ele>
        <time>2021-05-20T18:20:47+02:00</time>
      </trkpt>
      <trkpt lat="47.9115" lon="6.80237">
        <ele>589</ele>
        <time>2021-05-20T18:20:52+02:00</time>
      </trkpt>
      <trkpt lat="47.91129" lon="6.80207">
        <ele>590</ele>
        <time>2021-05-20T18:20:57+02:00</time>
      </trkpt>
      <trkpt lat="47.91143" lon="6.80171">
        <ele>589</ele>
        <time>2021-05-20T18:21:02+02:00</time>
      </trkpt>
      <trkpt lat="47.91139" lon="6.80128">
        <ele>588</ele>
        <time>2021-05-20T18:21:07+02:00</time>
      </trkpt>
      <trkpt lat="47.91138" lon="6.80103">
        <ele>587</ele>
        <time>2021-05-20T18:21:12+02:00</time>
      </trkpt>
      <trkpt lat="47.91124" lon="6.8008">
        <ele>588</ele>
        <time>2021-05-20T18:21:17+02:00</time>
      </trkpt>
      <trkpt lat="47.91089" lon="6.80079">
        <ele>591</ele>
        <time>2021-05-20T18:21:22+02:00</time>
      </trkpt>
      <trkpt lat="47.91052" lon="6.8008">
        <ele>598</ele>
        <time>2021-05-20T18:21:27+02:00</time>
      </trkpt>
      <trkpt lat="47.91061" lon="6.80049">
        <ele>596</ele>
        <time>2021-05-20T18:21:32+02:00</time>
      </trkpt>
      <trkpt lat="47.91066" lon="6.80011">
        <ele>593</ele>
        <time>2021-05-20T18:21:37+02:00</time>
      </trkpt>
      <trkpt lat="47.91069" lon="6.79967">
        <ele>593</ele>
        <time>2021-05-20T18:21:42+02:00</time>
      </trkpt>
      <trkpt lat="47.91066" lon="6.79928">
        <ele>595</ele>
        <time>2016-12-06T10:18:12+01:00</time>
      </trkpt>
      <trkpt lat="47.91054" lon="6.79957">
        <ele>597</ele>
        <time>2021-05-20T18:21:52+02:00</time>
      </trkpt>
      <trkpt lat="47.91034" lon="6.79977">
        <ele>602</ele>
        <time>2016-12-06T10:18:38+01:00</time>
      </trkpt>
      <trkpt lat="47.91018" lon="6.80005">
        <ele>605</ele>
        <time>2016-12-06T10:19:07+01:00</time>
      </trkpt>
      <trkpt lat="47.91002" lon="6.80029">
        <ele>608</ele>
        <time>2016-12-06T10:19:58+01:00</time>
      </trkpt>
      <trkpt lat="47.90978" lon="6.80049">
        <ele>615</ele>
        <time>2016-12-06T10:20:40+01:00</time>
      </trkpt>
      <trkpt lat="47.90957" lon="6.80058">
        <ele>621</ele>
        <time>2016-12-06T10:21:27+01:00</time>
      </trkpt>
      <trkpt lat="47.90941" lon="6.80064">
        <ele>625</ele>
        <time>2021-05-20T18:22:22+02:00</time>
      </trkpt>
      <trkpt lat="47.90925" lon="6.80069">
        <ele>629</ele>
        <time>2016-12-06T10:23:00+01:00</time>
      </trkpt>
      <trkpt lat="47.909" lon="6.8007">
        <ele>635</ele>
        <time>2016-12-06T10:23:06+01:00</time>
      </trkpt>
      <trkpt lat="47.90872" lon="6.80079">
        <ele>639</ele>
        <time>2016-12-06T10:23:12+01:00</time>
      </trkpt>
      <trkpt lat="47.90853" lon="6.80091">
        <ele>642</ele>
        <time>2016-12-06T10:23:25+01:00</time>
      </trkpt>
      <trkpt lat="47.90831" lon="6.801">
        <ele>646</ele>
        <time>2016-12-06T10:23:44+01:00</time>
      </trkpt>
      <trkpt lat="47.9081" lon="6.80121">
        <ele>649</ele>
        <time>2016-12-06T10:24:17+01:00</time>
      </trkpt>
      <trkpt lat="47.90792" lon="6.80137">
        <ele>653</ele>
        <time>2016-12-06T10:24:53+01:00</time>
      </trkpt>
      <trkpt lat="47.90775" lon="6.80143">
        <ele>657</ele>
        <time>2016-12-06T10:25:17+01:00</time>
      </trkpt>
      <trkpt lat="47.90766" lon="6.80101">
        <ele>659</ele>
        <time>2016-12-06T10:25:37+01:00</time>
      </trkpt>
      <trkpt lat="47.90762" lon="6.80066">
        <ele>661</ele>
        <time>2016-12-06T10:26:01+01:00</time>
      </trkpt>
      <trkpt lat="47.90763" lon="6.80032">
        <ele>663</ele>
        <time>2016-12-06T10:26:22+01:00</time>
      </trkpt>
      <trkpt lat="47.90757" lon="6.8">
        <ele>665</ele>
        <time>2016-12-06T10:26:44+01:00</time>
      </trkpt>
      <trkpt lat="47.90745" lon="6.79972">
        <ele>669</ele>
        <time>2016-12-06T10:27:12+01:00</time>
      </trkpt>
      <trkpt lat="47.90728" lon="6.79947">
        <ele>672</ele>
        <time>2016-12-06T10:29:16+01:00</time>
      </trkpt>
      <trkpt lat="47.90706" lon="6.79943">
        <ele>675</ele>
        <time>2016-12-06T10:29:41+01:00</time>
      </trkpt>
      <trkpt lat="47.90684" lon="6.79926">
        <ele>676</ele>
        <time>2016-12-06T10:30:17+01:00</time>
      </trkpt>
      <trkpt lat="47.90665" lon="6.79901">
        <ele>674</ele>
        <time>2016-12-06T10:33:34+01:00</time>
      </trkpt>
      <trkpt lat="47.90651" lon="6.79887">
        <ele>675</ele>
        <time>2016-12-06T10:33:53+01:00</time>
      </trkpt>
      <trkpt lat="47.90627" lon="6.79874">
        <ele>677</ele>
        <time>2016-12-06T10:34:12+01:00</time>
      </trkpt>
      <trkpt lat="47.90606" lon="6.79862">
        <ele>678</ele>
        <time>2016-12-06T10:34:28+01:00</time>
      </trkpt>
      <trkpt lat="47.90582" lon="6.79849">
        <ele>678</ele>
        <time>2016-12-06T10:34:43+01:00</time>
      </trkpt>
      <trkpt lat="47.90564" lon="6.79839">
        <ele>677</ele>
        <time>2016-12-06T10:35:03+01:00</time>
      </trkpt>
      <trkpt lat="47.90543" lon="6.7983">
        <ele>676</ele>
        <time>2016-12-06T10:35:23+01:00</time>
      </trkpt>
      <trkpt lat="47.9052" lon="6.79825">
        <ele>676</ele>
        <time>2016-12-06T10:35:35+01:00</time>
      </trkpt>
      <trkpt lat="47.90497" lon="6.79822">
        <ele>677</ele>
        <time>2016-12-06T10:35:52+01:00</time>
      </trkpt>
      <trkpt lat="47.90475" lon="6.7983">
        <ele>678</ele>
        <time>2016-12-06T10:36:10+01:00</time>
      </trkpt>
      <trkpt lat="47.90453" lon="6.79835">
        <ele>679</ele>
        <time>2016-12-06T10:36:28+01:00</time>
      </trkpt>
      <trkpt lat="47.90434" lon="6.79857">
        <ele>683</ele>
        <time>2016-12-06T10:36:48+01:00</time>
      </trkpt>
      <trkpt lat="47.90419" lon="6.79884">
        <ele>688</ele>
        <time>2016-12-06T10:37:21+01:00</time>
      </trkpt>
      <trkpt lat="47.9041" lon="6.79899">
        <ele>691</ele>
        <time>2021-05-20T18:24:52+02:00</time>
      </trkpt>
      <trkpt lat="47.90397" lon="6.79896">
        <ele>692</ele>
        <time>2016-12-06T10:37:54+01:00</time>
      </trkpt>
      <trkpt lat="47.90374" lon="6.79888">
        <ele>693</ele>
        <time>2016-12-06T10:38:06+01:00</time>
      </trkpt>
      <trkpt lat="47.90349" lon="6.79891">
        <ele>696</ele>
        <time>2016-12-06T10:38:23+01:00</time>
      </trkpt>
      <trkpt lat="47.90328" lon="6.79892">
        <ele>698</ele>
        <time>2016-12-06T10:38:40+01:00</time>
      </trkpt>
      <trkpt lat="47.90306" lon="6.79894">
        <ele>701</ele>
        <time>2016-12-06T10:38:57+01:00</time>
      </trkpt>
      <trkpt lat="47.90284" lon="6.79886">
        <ele>701</ele>
        <time>2016-12-06T10:39:21+01:00</time>
      </trkpt>
      <trkpt lat="47.90266" lon="6.79866">
        <ele>700</ele>
        <time>2016-12-06T10:39:39+01:00</time>
      </trkpt>
      <trkpt lat="47.90247" lon="6.7985">
        <ele>700</ele>
        <time>2016-12-06T10:40:12+01:00</time>
      </trkpt>
      <trkpt lat="47.90224" lon="6.79841">
        <ele>702</ele>
        <time>2016-12-06T10:40:29+01:00</time>
      </trkpt>
      <trkpt lat="47.90204" lon="6.79826">
        <ele>703</ele>
        <time>2016-12-06T10:40:44+01:00</time>
      </trkpt>
      <trkpt lat="47.90181" lon="6.79807">
        <ele>704</ele>
        <time>2016-12-06T10:40:59+01:00</time>
      </trkpt>
      <trkpt lat="47.9016" lon="6.79795">
        <ele>706</ele>
        <time>2016-12-06T10:41:17+01:00</time>
      </trkpt>
      <trkpt lat="47.9014" lon="6.79779">
        <ele>709</ele>
        <time>2016-12-06T10:41:37+01:00</time>
      </trkpt>
      <trkpt lat="47.90122" lon="6.79762">
        <ele>712</ele>
        <time>2016-12-06T10:42:05+01:00</time>
      </trkpt>
      <trkpt lat="47.90101" lon="6.79741">
        <ele>714</ele>
        <time>2016-12-06T10:42:24+01:00</time>
      </trkpt>
      <trkpt lat="47.90086" lon="6.79709">
        <ele>715</ele>
        <time>2016-12-06T10:42:42+01:00</time>
      </trkpt>
      <trkpt lat="47.90079" lon="6.79679">
        <ele>715</ele>
        <time>2016-12-06T10:43:03+01:00</time>
      </trkpt>
      <trkpt lat="47.90073" lon="6.79652">
        <ele>713</ele>
        <time>2016-12-06T10:44:09+01:00</time>
      </trkpt>
      <trkpt lat="47.90065" lon="6.79617">
        <ele>710</ele>
        <time>2016-12-06T10:48:21+01:00</time>
      </trkpt>
      <trkpt lat="47.90054" lon="6.79588">
        <ele>707</ele>
        <time>2016-12-06T10:48:42+01:00</time>
      </trkpt>
      <trkpt lat="47.90041" lon="6.79568">
        <ele>704</ele>
        <time>2016-12-06T10:48:59+01:00</time>
      </trkpt>
      <trkpt lat="47.90021" lon="6.7956">
        <ele>703</ele>
        <time>2016-12-06T10:49:20+01:00</time>
      </trkpt>
      <trkpt lat="47.89998" lon="6.79559">
        <ele>704</ele>
        <time>2016-12-06T10:49:34+01:00</time>
      </trkpt>
      <trkpt lat="47.89975" lon="6.79566">
        <ele>705</ele>
        <time>2016-12-06T10:49:49+01:00</time>
      </trkpt>
      <trkpt lat="47.89952" lon="6.79564">
        <ele>703</ele>
        <time>2016-12-06T10:50:12+01:00</time>
      </trkpt>
      <trkpt lat="47.8993" lon="6.7957">
        <ele>704</ele>
        <time>2016-12-06T10:50:27+01:00</time>
      </trkpt>
      <trkpt lat="47.89914" lon="6.7959">
        <ele>707</ele>
        <time>2016-12-06T10:50:44+01:00</time>
      </trkpt>
      <trkpt lat="47.89893" lon="6.79604">
        <ele>706</ele>
        <time>2016-12-06T10:50:59+01:00</time>
      </trkpt>
      <trkpt lat="47.89868" lon="6.79611">
        <ele>703</ele>
        <time>2016-12-06T10:51:25+01:00</time>
      </trkpt>
      <trkpt lat="47.89849" lon="6.79624">
        <ele>701</ele>
        <time>2016-12-06T10:51:41+01:00</time>
      </trkpt>
      <trkpt lat="47.89821" lon="6.79645">
        <ele>699</ele>
        <time>2016-12-06T10:51:59+01:00</time>
      </trkpt>
      <trkpt lat="47.89807" lon="6.7967">
        <ele>699</ele>
        <time>2016-12-06T10:52:21+01:00</time>
      </trkpt>
      <trkpt lat="47.89792" lon="6.79689">
        <ele>699</ele>
        <time>2016-12-06T10:52:41+01:00</time>
      </trkpt>
      <trkpt lat="47.8978" lon="6.79708">
        <ele>700</ele>
        <time>2016-12-06T10:52:55+01:00</time>
      </trkpt>
      <trkpt lat="47.89764" lon="6.79712">
        <ele>697</ele>
        <time>2016-12-06T10:53:14+01:00</time>
      </trkpt>
      <trkpt lat="47.89752" lon="6.79712">
        <ele>695</ele>
        <time>2021-05-20T18:27:52+02:00</time>
      </trkpt>
      <trkpt lat="47.8974" lon="6.79725">
        <ele>695</ele>
        <time>2016-12-06T10:53:42+01:00</time>
      </trkpt>
      <trkpt lat="47.89722" lon="6.79747">
        <ele>696</ele>
        <time>2016-12-06T10:54:01+01:00</time>
      </trkpt>
      <trkpt lat="47.89705" lon="6.79766">
        <ele>697</ele>
        <time>2016-12-06T10:54:43+01:00</time>
      </trkpt>
      <trkpt lat="47.89688" lon="6.79789">
        <ele>699</ele>
        <time>2016-12-06T10:55:01+01:00</time>
      </trkpt>
      <trkpt lat="47.8968" lon="6.79824">
        <ele>703</ele>
        <time>2016-12-06T10:55:43+01:00</time>
      </trkpt>
      <trkpt lat="47.89681" lon="6.79865">
        <ele>710</ele>
        <time>2016-12-06T10:56:15+01:00</time>
      </trkpt>
      <trkpt lat="47.89676" lon="6.79899">
        <ele>714</ele>
        <time>2016-12-06T10:56:51+01:00</time>
      </trkpt>
      <trkpt lat="47.89666" lon="6.79933">
        <ele>717</ele>
        <time>2016-12-06T10:57:02+01:00</time>
      </trkpt>
      <trkpt lat="47.89657" lon="6.79962">
        <ele>718</ele>
        <time>2016-12-06T10:57:29+01:00</time>
      </trkpt>
      <trkpt lat="47.89651" lon="6.79996">
        <ele>721</ele>
        <time>2016-12-06T10:58:01+01:00</time>
      </trkpt>
      <trkpt lat="47.89644" lon="6.80026">
        <ele>725</ele>
        <time>2016-12-06T10:58:06+01:00</time>
      </trkpt>
      <trkpt lat="47.89638" lon="6.80063">
        <ele>730</ele>
        <time>2016-12-06T10:58:25+01:00</time>
      </trkpt>
      <trkpt lat="47.8962" lon="6.80086">
        <ele>731</ele>
        <time>2016-12-06T10:58:33+01:00</time>
      </trkpt>
      <trkpt lat="47.89603" lon="6.80109">
        <ele>733</ele>
        <time>2016-12-06T10:58:56+01:00</time>
      </trkpt>
      <trkpt lat="47.89588" lon="6.80134">
        <ele>737</ele>
        <time>2016-12-06T10:59:13+01:00</time>
      </trkpt>
      <trkpt lat="47.89574" lon="6.80161">
        <ele>740</ele>
        <time>2016-12-06T10:59:33+01:00</time>
      </trkpt>
      <trkpt lat="47.89558" lon="6.80186">
        <ele>741</ele>
        <time>2016-12-06T10:59:50+01:00</time>
      </trkpt>
      <trkpt lat="47.89543" lon="6.80211">
        <ele>742</ele>
        <time>2016-12-06T11:00:16+01:00</time>
      </trkpt>
      <trkpt lat="47.89535" lon="6.80246">
        <ele>747</ele>
        <time>2016-12-06T11:00:36+01:00</time>
      </trkpt>
      <trkpt lat="47.89525" lon="6.80277">
        <ele>749</ele>
        <time>2016-12-06T11:00:59+01:00</time>
      </trkpt>
      <trkpt lat="47.8951" lon="6.80304">
        <ele>750</ele>
        <time>2016-12-06T11:01:21+01:00</time>
      </trkpt>
      <trkpt lat="47.89495" lon="6.80332">
        <ele>751</ele>
        <time>2016-12-06T11:01:46+01:00</time>
      </trkpt>
      <trkpt lat="47.89477" lon="6.8035">
        <ele>755</ele>
        <time>2016-12-06T11:02:11+01:00</time>
      </trkpt>
      <trkpt lat="47.89454" lon="6.80344">
        <ele>755</ele>
        <time>2016-12-06T11:02:40+01:00</time>
      </trkpt>
      <trkpt lat="47.89429" lon="6.80333">
        <ele>754</ele>
        <time>2016-12-06T11:03:04+01:00</time>
      </trkpt>
      <trkpt lat="47.89408" lon="6.80334">
        <ele>755</ele>
        <time>2016-12-06T11:03:25+01:00</time>
      </trkpt>
      <trkpt lat="47.89381" lon="6.80328">
        <ele>756</ele>
        <time>2016-12-06T11:03:45+01:00</time>
      </trkpt>
      <trkpt lat="47.89362" lon="6.80325">
        <ele>757</ele>
        <time>2016-12-06T11:04:07+01:00</time>
      </trkpt>
      <trkpt lat="47.89341" lon="6.8032">
        <ele>757</ele>
        <time>2016-12-06T11:04:26+01:00</time>
      </trkpt>
      <trkpt lat="47.8932" lon="6.80318">
        <ele>757</ele>
        <time>2016-12-06T11:04:43+01:00</time>
      </trkpt>
      <trkpt lat="47.89308" lon="6.80347">
        <ele>760</ele>
        <time>2016-12-06T11:05:02+01:00</time>
      </trkpt>
      <trkpt lat="47.89298" lon="6.80367">
        <ele>761</ele>
        <time>2016-12-06T11:05:21+01:00</time>
      </trkpt>
      <trkpt lat="47.8929" lon="6.80384">
        <ele>762</ele>
        <time>2016-12-06T11:05:47+01:00</time>
      </trkpt>
      <trkpt lat="47.89286" lon="6.8039">
        <ele>762</ele>
        <time>2016-12-06T11:19:09+01:00</time>
      </trkpt>
      <trkpt lat="47.89307" lon="6.80407">
        <ele>764</ele>
        <time>2016-12-06T11:19:52+01:00</time>
      </trkpt>
      <trkpt lat="47.89325" lon="6.80427">
        <ele>766</ele>
        <time>2016-12-06T11:20:16+01:00</time>
      </trkpt>
      <trkpt lat="47.89339" lon="6.80456">
        <ele>770</ele>
        <time>2016-12-06T11:20:37+01:00</time>
      </trkpt>
      <trkpt lat="47.89335" lon="6.80496">
        <ele>774</ele>
        <time>2016-12-06T11:20:54+01:00</time>
      </trkpt>
      <trkpt lat="47.89333" lon="6.80528">
        <ele>776</ele>
        <time>2016-12-06T11:21:43+01:00</time>
      </trkpt>
      <trkpt lat="47.89338" lon="6.80561">
        <ele>779</ele>
        <time>2016-12-06T11:22:07+01:00</time>
      </trkpt>
      <trkpt lat="47.89343" lon="6.80593">
        <ele>782</ele>
        <time>2016-12-06T11:22:23+01:00</time>
      </trkpt>
      <trkpt lat="47.89346" lon="6.80628">
        <ele>784</ele>
        <time>2016-12-06T11:22:43+01:00</time>
      </trkpt>
      <trkpt lat="47.89349" lon="6.80664">
        <ele>785</ele>
        <time>2016-12-06T11:23:02+01:00</time>
      </trkpt>
      <trkpt lat="47.89353" lon="6.80697">
        <ele>787</ele>
        <time>2016-12-06T11:23:20+01:00</time>
      </trkpt>
      <trkpt lat="47.89357" lon="6.80731">
        <ele>788</ele>
        <time>2016-12-06T11:23:40+01:00</time>
      </trkpt>
      <trkpt lat="47.89361" lon="6.80765">
        <ele>790</ele>
        <time>2016-12-06T11:24:03+01:00</time>
      </trkpt>
      <trkpt lat="47.89366" lon="6.80799">
        <ele>793</ele>
        <time>2016-12-06T11:24:23+01:00</time>
      </trkpt>
      <trkpt lat="47.89373" lon="6.80828">
        <ele>796</ele>
        <time>2016-12-06T11:24:42+01:00</time>
      </trkpt>
      <trkpt lat="47.89381" lon="6.8086">
        <ele>799</ele>
        <time>2016-12-06T11:25:07+01:00</time>
      </trkpt>
      <trkpt lat="47.89392" lon="6.80893">
        <ele>802</ele>
        <time>2016-12-06T11:25:27+01:00</time>
      </trkpt>
      <trkpt lat="47.89399" lon="6.80924">
        <ele>804</ele>
        <time>2016-12-06T11:25:49+01:00</time>
      </trkpt>
      <trkpt lat="47.89411" lon="6.80953">
        <ele>807</ele>
        <time>2016-12-06T11:26:12+01:00</time>
      </trkpt>
      <trkpt lat="47.89425" lon="6.80981">
        <ele>809</ele>
        <time>2016-12-06T11:26:29+01:00</time>
      </trkpt>
      <trkpt lat="47.89438" lon="6.81007">
        <ele>812</ele>
        <time>2016-12-06T11:26:52+01:00</time>
      </trkpt>
      <trkpt lat="47.89454" lon="6.81032">
        <ele>813</ele>
        <time>2016-12-06T11:27:14+01:00</time>
      </trkpt>
      <trkpt lat="47.89469" lon="6.81057">
        <ele>815</ele>
        <time>2016-12-06T11:27:35+01:00</time>
      </trkpt>
      <trkpt lat="47.89488" lon="6.81079">
        <ele>818</ele>
        <time>2016-12-06T11:27:57+01:00</time>
      </trkpt>
      <trkpt lat="47.89505" lon="6.81103">
        <ele>819</ele>
        <time>2016-12-06T11:28:16+01:00</time>
      </trkpt>
      <trkpt lat="47.89524" lon="6.81124">
        <ele>824</ele>
        <time>2016-12-06T11:28:35+01:00</time>
      </trkpt>
      <trkpt lat="47.89542" lon="6.81142">
        <ele>829</ele>
        <time>2016-12-06T11:29:17+01:00</time>
      </trkpt>
      <trkpt lat="47.89583" lon="6.8118">
        <ele>833</ele>
        <time>2016-12-06T11:29:56+01:00</time>
      </trkpt>
      <trkpt lat="47.89569" lon="6.81147">
        <ele>834</ele>
        <time>2021-05-20T18:33:02+02:00</time>
      </trkpt>
      <trkpt lat="47.89573" lon="6.81113">
        <ele>841</ele>
        <time>2021-05-20T18:33:07+02:00</time>
      </trkpt>
      <trkpt lat="47.89592" lon="6.81093">
        <ele>850</ele>
        <time>2021-05-20T18:33:12+02:00</time>
      </trkpt>
      <trkpt lat="47.8961" lon="6.81069">
        <ele>858</ele>
        <time>2016-12-06T11:31:47+01:00</time>
      </trkpt>
      <trkpt lat="47.89628" lon="6.81043">
        <ele>865</ele>
        <time>2021-05-20T18:33:22+02:00</time>
      </trkpt>
      <trkpt lat="47.8966" lon="6.81012">
        <ele>876</ele>
        <time>2021-05-20T18:33:27+02:00</time>
      </trkpt>
      <trkpt lat="47.89689" lon="6.80985">
        <ele>885</ele>
        <time>2021-05-20T18:33:32+02:00</time>
      </trkpt>
      <trkpt lat="47.89704" lon="6.8096">
        <ele>890</ele>
        <time>2016-12-06T11:33:13+01:00</time>
      </trkpt>
      <trkpt lat="47.8972" lon="6.80866">
        <ele>888</ele>
        <time>2021-05-20T18:33:42+02:00</time>
      </trkpt>
      <trkpt lat="47.89731" lon="6.80836">
        <ele>888</ele>
        <time>2021-05-20T18:33:47+02:00</time>
      </trkpt>
      <trkpt lat="47.89769" lon="6.80799">
        <ele>893</ele>
        <time>2016-12-06T11:33:59+01:00</time>
      </trkpt>
      <trkpt lat="47.89827" lon="6.80771">
        <ele>901</ele>
        <time>2021-05-20T18:33:57+02:00</time>
      </trkpt>
      <trkpt lat="47.89866" lon="6.80749">
        <ele>902</ele>
        <time>2021-05-20T18:34:02+02:00</time>
      </trkpt>
      <trkpt lat="47.89858" lon="6.80775">
        <ele>906</ele>
        <time>2021-05-20T18:34:07+02:00</time>
      </trkpt>
      <trkpt lat="47.89871" lon="6.80784">
        <ele>909</ele>
        <time>2021-05-20T18:34:12+02:00</time>
      </trkpt>
      <trkpt lat="47.89845" lon="6.808">
        <ele>912</ele>
        <time>2021-05-20T18:34:17+02:00</time>
      </trkpt>
      <trkpt lat="47.89868" lon="6.80824">
        <ele>923</ele>
        <time>2021-05-20T18:34:22+02:00</time>
      </trkpt>
      <trkpt lat="47.8988" lon="6.80855">
        <ele>933</ele>
        <time>2021-05-20T18:34:27+02:00</time>
      </trkpt>
      <trkpt lat="47.89858" lon="6.80849">
        <ele>934</ele>
        <time>2021-05-20T18:34:32+02:00</time>
      </trkpt>
      <trkpt lat="47.89834" lon="6.80842">
        <ele>931</ele>
        <time>2021-05-20T18:34:37+02:00</time>
      </trkpt>
      <trkpt lat="47.89853" lon="6.80882">
        <ele>939</ele>
        <time>2021-05-20T18:34:42+02:00</time>
      </trkpt>
      <trkpt lat="47.89873" lon="6.80915">
        <ele>940</ele>
        <time>2021-05-20T18:34:47+02:00</time>
      </trkpt>
      <trkpt lat="47.89879" lon="6.80977">
        <ele>940</ele>
        <time>2021-05-20T18:34:52+02:00</time>
      </trkpt>
      <trkpt lat="47.89877" lon="6.81039">
        <ele>937</ele>
        <time>2021-05-20T18:34:57+02:00</time>
      </trkpt>
      <trkpt lat="47.8988" lon="6.81088">
        <ele>933</ele>
        <time>2021-05-20T18:35:02+02:00</time>
      </trkpt>
      <trkpt lat="47.8989" lon="6.81143">
        <ele>926</ele>
        <time>2021-05-20T18:35:07+02:00</time>
      </trkpt>
      <trkpt lat="47.899" lon="6.81179">
        <ele>918</ele>
        <time>2021-05-20T18:35:12+02:00</time>
      </trkpt>
      <trkpt lat="47.89903" lon="6.81219">
        <ele>913</ele>
        <time>2021-05-20T18:35:17+02:00</time>
      </trkpt>
      <trkpt lat="47.89917" lon="6.81286">
        <ele>904</ele>
        <time>2016-12-06T11:37:05+01:00</time>
      </trkpt>
      <trkpt lat="47.89928" lon="6.81316">
        <ele>899</ele>
        <time>2021-05-20T18:35:27+02:00</time>
      </trkpt>
      <trkpt lat="47.89943" lon="6.81342">
        <ele>895</ele>
        <time>2021-05-20T18:35:32+02:00</time>
      </trkpt>
      <trkpt lat="47.89957" lon="6.81369">
        <ele>891</ele>
        <time>2021-05-20T18:35:37+02:00</time>
      </trkpt>
      <trkpt lat="47.89972" lon="6.81399">
        <ele>888</ele>
        <time>2016-12-06T11:37:36+01:00</time>
      </trkpt>
      <trkpt lat="47.89986" lon="6.81434">
        <ele>884</ele>
        <time>2021-05-20T18:35:47+02:00</time>
      </trkpt>
      <trkpt lat="47.89989" lon="6.81484">
        <ele>883</ele>
        <time>2021-05-20T18:35:52+02:00</time>
      </trkpt>
      <trkpt lat="47.89989" lon="6.81573">
        <ele>882</ele>
        <time>2021-05-20T18:35:57+02:00</time>
      </trkpt>
      <trkpt lat="47.89979" lon="6.81739">
        <ele>878</ele>
        <time>2016-12-06T11:37:59+01:00</time>
      </trkpt>
      <trkpt lat="47.89958" lon="6.81806">
        <ele>871</ele>
        <time>2016-12-06T11:39:24+01:00</time>
      </trkpt>
      <trkpt lat="47.8997" lon="6.81806">
        <ele>874</ele>
        <time>2016-12-06T11:40:33+01:00</time>
      </trkpt>
      <trkpt lat="47.89984" lon="6.81805">
        <ele>875</ele>
        <time>2016-12-06T11:43:05+01:00</time>
      </trkpt>
      <trkpt lat="47.90004" lon="6.81788">
        <ele>874</ele>
        <time>2016-12-06T11:43:23+01:00</time>
      </trkpt>
      <trkpt lat="47.90018" lon="6.81771">
        <ele>868</ele>
        <time>2016-12-06T11:44:03+01:00</time>
      </trkpt>
      <trkpt lat="47.90038" lon="6.81765">
        <ele>860</ele>
        <time>2016-12-06T11:44:19+01:00</time>
      </trkpt>
      <trkpt lat="47.90049" lon="6.81753">
        <ele>856</ele>
        <time>2016-12-06T11:45:05+01:00</time>
      </trkpt>
      <trkpt lat="47.90062" lon="6.81727">
        <ele>854</ele>
        <time>2016-12-06T11:45:25+01:00</time>
      </trkpt>
      <trkpt lat="47.90077" lon="6.81695">
        <ele>852</ele>
        <time>2016-12-06T11:45:45+01:00</time>
      </trkpt>
      <trkpt lat="47.90096" lon="6.81674">
        <ele>846</ele>
        <time>2016-12-06T11:46:05+01:00</time>
      </trkpt>
      <trkpt lat="47.90114" lon="6.81653">
        <ele>841</ele>
        <time>2016-12-06T11:46:21+01:00</time>
      </trkpt>
      <trkpt lat="47.90131" lon="6.81628">
        <ele>836</ele>
        <time>2016-12-06T11:46:39+01:00</time>
      </trkpt>
      <trkpt lat="47.90149" lon="6.81608">
        <ele>831</ele>
        <time>2016-12-06T11:46:59+01:00</time>
      </trkpt>
      <trkpt lat="47.90165" lon="6.81586">
        <ele>827</ele>
        <time>2016-12-06T11:47:20+01:00</time>
      </trkpt>
      <trkpt lat="47.90185" lon="6.8157">
        <ele>823</ele>
        <time>2016-12-06T11:47:37+01:00</time>
      </trkpt>
      <trkpt lat="47.90207" lon="6.81557">
        <ele>817</ele>
        <time>2016-12-06T11:47:57+01:00</time>
      </trkpt>
      <trkpt lat="47.9023" lon="6.81544">
        <ele>811</ele>
        <time>2016-12-06T11:48:14+01:00</time>
      </trkpt>
      <trkpt lat="47.90246" lon="6.81528">
        <ele>807</ele>
        <time>2016-12-06T11:48:41+01:00</time>
      </trkpt>
      <trkpt lat="47.90271" lon="6.81496">
        <ele>804</ele>
        <time>2016-12-06T11:49:08+01:00</time>
      </trkpt>
      <trkpt lat="47.90264" lon="6.81519">
        <ele>804</ele>
        <time>2021-05-20T18:37:42+02:00</time>
      </trkpt>
      <trkpt lat="47.90251" lon="6.81543">
        <ele>805</ele>
        <time>2016-12-06T11:49:59+01:00</time>
      </trkpt>
      <trkpt lat="47.90231" lon="6.81571">
        <ele>809</ele>
        <time>2016-12-06T11:50:16+01:00</time>
      </trkpt>
      <trkpt lat="47.90213" lon="6.81593">
        <ele>811</ele>
        <time>2016-12-06T11:50:43+01:00</time>
      </trkpt>
      <trkpt lat="47.90197" lon="6.81612">
        <ele>813</ele>
        <time>2016-12-06T11:52:25+01:00</time>
      </trkpt>
      <trkpt lat="47.90189" lon="6.81646">
        <ele>811</ele>
        <time>2016-12-06T11:52:49+01:00</time>
      </trkpt>
      <trkpt lat="47.90173" lon="6.81677">
        <ele>812</ele>
        <time>2016-12-06T11:53:06+01:00</time>
      </trkpt>
      <trkpt lat="47.90167" lon="6.81706">
        <ele>812</ele>
        <time>2016-12-06T11:53:22+01:00</time>
      </trkpt>
      <trkpt lat="47.90161" lon="6.81739">
        <ele>811</ele>
        <time>2016-12-06T11:53:42+01:00</time>
      </trkpt>
      <trkpt lat="47.90152" lon="6.81776">
        <ele>811</ele>
        <time>2016-12-06T11:54:10+01:00</time>
      </trkpt>
      <trkpt lat="47.90139" lon="6.81807">
        <ele>813</ele>
        <time>2016-12-06T11:54:27+01:00</time>
      </trkpt>
      <trkpt lat="47.90132" lon="6.81835">
        <ele>813</ele>
        <time>2016-12-06T11:54:45+01:00</time>
      </trkpt>
      <trkpt lat="47.90126" lon="6.81862">
        <ele>815</ele>
        <time>2016-12-06T11:55:02+01:00</time>
      </trkpt>
      <trkpt lat="47.90126" lon="6.81897">
        <ele>814</ele>
        <time>2016-12-06T11:55:16+01:00</time>
      </trkpt>
      <trkpt lat="47.90126" lon="6.81926">
        <ele>814</ele>
        <time>2016-12-06T11:55:38+01:00</time>
      </trkpt>
      <trkpt lat="47.90131" lon="6.81946">
        <ele>813</ele>
        <time>2021-05-20T18:38:57+02:00</time>
      </trkpt>
      <trkpt lat="47.90144" lon="6.81963">
        <ele>809</ele>
        <time>2016-12-06T11:55:58+01:00</time>
      </trkpt>
      <trkpt lat="47.90152" lon="6.81974">
        <ele>807</ele>
        <time>2016-12-06T11:56:41+01:00</time>
      </trkpt>
      <trkpt lat="47.90169" lon="6.81989">
        <ele>804</ele>
        <time>2016-12-06T11:57:00+01:00</time>
      </trkpt>
      <trkpt lat="47.9019" lon="6.82006">
        <ele>801</ele>
        <time>2016-12-06T11:57:18+01:00</time>
      </trkpt>
      <trkpt lat="47.90211" lon="6.82019">
        <ele>799</ele>
        <time>2016-12-06T11:57:34+01:00</time>
      </trkpt>
      <trkpt lat="47.9023" lon="6.8204">
        <ele>798</ele>
        <time>2016-12-06T11:57:53+01:00</time>
      </trkpt>
      <trkpt lat="47.90249" lon="6.82056">
        <ele>796</ele>
        <time>2016-12-06T11:58:11+01:00</time>
      </trkpt>
      <trkpt lat="47.90267" lon="6.82075">
        <ele>796</ele>
        <time>2016-12-06T11:58:27+01:00</time>
      </trkpt>
      <trkpt lat="47.90287" lon="6.82093">
        <ele>795</ele>
        <time>2016-12-06T11:58:43+01:00</time>
      </trkpt>
      <trkpt lat="47.90303" lon="6.82108">
        <ele>796</ele>
        <time>2016-12-06T12:00:21+01:00</time>
      </trkpt>
      <trkpt lat="47.90315" lon="6.82119">
        <ele>796</ele>
        <time>2016-12-06T12:36:37+01:00</time>
      </trkpt>
      <trkpt lat="47.90331" lon="6.82127">
        <ele>794</ele>
        <time>2016-12-06T12:37:42+01:00</time>
      </trkpt>
      <trkpt lat="47.90352" lon="6.82148">
        <ele>794</ele>
        <time>2016-12-06T12:38:21+01:00</time>
      </trkpt>
      <trkpt lat="47.90371" lon="6.82167">
        <ele>793</ele>
        <time>2016-12-06T12:38:38+01:00</time>
      </trkpt>
      <trkpt lat="47.90388" lon="6.82188">
        <ele>791</ele>
        <time>2016-12-06T12:38:56+01:00</time>
      </trkpt>
      <trkpt lat="47.90408" lon="6.82215">
        <ele>789</ele>
        <time>2016-12-06T12:39:17+01:00</time>
      </trkpt>
      <trkpt lat="47.90417" lon="6.82246">
        <ele>789</ele>
        <time>2016-12-06T12:39:39+01:00</time>
      </trkpt>
      <trkpt lat="47.90427" lon="6.82281">
        <ele>789</ele>
        <time>2016-12-06T12:39:56+01:00</time>
      </trkpt>
      <trkpt lat="47.90432" lon="6.82313">
        <ele>789</ele>
        <time>2016-12-06T12:40:14+01:00</time>
      </trkpt>
      <trkpt lat="47.90441" lon="6.82338">
        <ele>788</ele>
        <time>2016-12-06T12:40:31+01:00</time>
      </trkpt>
      <trkpt lat="47.90447" lon="6.8237">
        <ele>788</ele>
        <time>2016-12-06T12:40:48+01:00</time>
      </trkpt>
      <trkpt lat="47.90454" lon="6.82402">
        <ele>788</ele>
        <time>2016-12-06T12:41:10+01:00</time>
      </trkpt>
      <trkpt lat="47.90462" lon="6.82437">
        <ele>787</ele>
        <time>2016-12-06T12:41:35+01:00</time>
      </trkpt>
      <trkpt lat="47.90468" lon="6.8247">
        <ele>787</ele>
        <time>2016-12-06T12:41:57+01:00</time>
      </trkpt>
      <trkpt lat="47.90472" lon="6.82501">
        <ele>787</ele>
        <time>2016-12-06T12:42:06+01:00</time>
      </trkpt>
      <trkpt lat="47.90476" lon="6.82539">
        <ele>788</ele>
        <time>2016-12-06T12:42:36+01:00</time>
      </trkpt>
      <trkpt lat="47.90481" lon="6.82571">
        <ele>787</ele>
        <time>2016-12-06T12:42:46+01:00</time>
      </trkpt>
      <trkpt lat="47.90485" lon="6.82606">
        <ele>788</ele>
        <time>2016-12-06T12:43:09+01:00</time>
      </trkpt>
      <trkpt lat="47.90489" lon="6.82632">
        <ele>788</ele>
        <time>2016-12-06T12:43:19+01:00</time>
      </trkpt>
      <trkpt lat="47.90491" lon="6.8267">
        <ele>790</ele>
        <time>2016-12-06T12:43:41+01:00</time>
      </trkpt>
      <trkpt lat="47.90494" lon="6.827">
        <ele>792</ele>
        <time>2016-12-06T12:44:02+01:00</time>
      </trkpt>
      <trkpt lat="47.90495" lon="6.82726">
        <ele>794</ele>
        <time>2016-12-06T12:44:20+01:00</time>
      </trkpt>
      <trkpt lat="47.90497" lon="6.82751">
        <ele>795</ele>
        <time>2016-12-06T12:44:37+01:00</time>
      </trkpt>
      <trkpt lat="47.90501" lon="6.82794">
        <ele>796</ele>
        <time>2016-12-06T12:45:00+01:00</time>
      </trkpt>
      <trkpt lat="47.90505" lon="6.82832">
        <ele>797</ele>
        <time>2016-12-06T12:45:19+01:00</time>
      </trkpt>
      <trkpt lat="47.90506" lon="6.82863">
        <ele>798</ele>
        <time>2016-12-06T12:45:39+01:00</time>
      </trkpt>
      <trkpt lat="47.90506" lon="6.82907">
        <ele>799</ele>
        <time>2016-12-06T12:45:58+01:00</time>
      </trkpt>
      <trkpt lat="47.90505" lon="6.82942">
        <ele>802</ele>
        <time>2021-05-20T18:42:07+02:00</time>
      </trkpt>
      <trkpt lat="47.90509" lon="6.82978">
        <ele>803</ele>
        <time>2016-12-06T12:46:19+01:00</time>
      </trkpt>
      <trkpt lat="47.90543" lon="6.83001">
        <ele>793</ele>
        <time>2016-12-06T12:46:46+01:00</time>
      </trkpt>
      <trkpt lat="47.9056" lon="6.83024">
        <ele>791</ele>
        <time>2016-12-06T12:46:59+01:00</time>
      </trkpt>
      <trkpt lat="47.90575" lon="6.83043">
        <ele>789</ele>
        <time>2016-12-06T12:47:16+01:00</time>
      </trkpt>
      <trkpt lat="47.90585" lon="6.8306">
        <ele>789</ele>
        <time>2016-12-06T12:47:35+01:00</time>
      </trkpt>
      <trkpt lat="47.90594" lon="6.83083">
        <ele>790</ele>
        <time>2016-12-06T12:47:53+01:00</time>
      </trkpt>
      <trkpt lat="47.9061" lon="6.83115">
        <ele>790</ele>
        <time>2016-12-06T12:48:24+01:00</time>
      </trkpt>
      <trkpt lat="47.90626" lon="6.83136">
        <ele>787</ele>
        <time>2016-12-06T12:48:33+01:00</time>
      </trkpt>
      <trkpt lat="47.90646" lon="6.8316">
        <ele>783</ele>
        <time>2016-12-06T12:48:52+01:00</time>
      </trkpt>
      <trkpt lat="47.90654" lon="6.83167">
        <ele>781</ele>
        <time>2021-05-20T18:42:57+02:00</time>
      </trkpt>
      <trkpt lat="47.90655" lon="6.83187">
        <ele>783</ele>
        <time>2016-12-06T12:49:07+01:00</time>
      </trkpt>
      <trkpt lat="47.90659" lon="6.83222">
        <ele>786</ele>
        <time>2016-12-06T12:49:22+01:00</time>
      </trkpt>
      <trkpt lat="47.90662" lon="6.83253">
        <ele>789</ele>
        <time>2016-12-06T12:50:03+01:00</time>
      </trkpt>
      <trkpt lat="47.9067" lon="6.83288">
        <ele>792</ele>
        <time>2016-12-06T12:50:55+01:00</time>
      </trkpt>
      <trkpt lat="47.90678" lon="6.83347">
        <ele>799</ele>
        <time>2021-05-20T18:43:22+02:00</time>
      </trkpt>
      <trkpt lat="47.90681" lon="6.83371">
        <ele>803</ele>
        <time>2021-05-20T18:43:27+02:00</time>
      </trkpt>
      <trkpt lat="47.90698" lon="6.83414">
        <ele>807</ele>
        <time>2016-12-06T12:57:59+01:00</time>
      </trkpt>
      <trkpt lat="47.90733" lon="6.83473">
        <ele>808</ele>
        <time>2016-12-06T12:58:12+01:00</time>
      </trkpt>
      <trkpt lat="47.90753" lon="6.83521">
        <ele>809</ele>
        <time>2016-12-06T12:58:24+01:00</time>
      </trkpt>
      <trkpt lat="47.90764" lon="6.83566">
        <ele>815</ele>
        <time>2016-12-06T12:58:44+01:00</time>
      </trkpt>
      <trkpt lat="47.90777" lon="6.83616">
        <ele>822</ele>
        <time>2016-12-06T12:59:07+01:00</time>
      </trkpt>
      <trkpt lat="47.90797" lon="6.83637">
        <ele>826</ele>
        <time>2021-05-20T18:43:57+02:00</time>
      </trkpt>
      <trkpt lat="47.90817" lon="6.8365">
        <ele>828</ele>
        <time>2016-12-06T12:59:17+01:00</time>
      </trkpt>
      <trkpt lat="47.90826" lon="6.8361">
        <ele>826</ele>
        <time>2021-05-20T18:44:07+02:00</time>
      </trkpt>
      <trkpt lat="47.9083" lon="6.83559">
        <ele>824</ele>
        <time>2021-05-20T18:44:12+02:00</time>
      </trkpt>
      <trkpt lat="47.90839" lon="6.83491">
        <ele>824</ele>
        <time>2016-12-06T12:59:47+01:00</time>
      </trkpt>
      <trkpt lat="47.90849" lon="6.83417">
        <ele>826</ele>
        <time>2016-12-06T13:00:06+01:00</time>
      </trkpt>
      <trkpt lat="47.90853" lon="6.83358">
        <ele>825</ele>
        <time>2016-12-06T13:00:39+01:00</time>
      </trkpt>
      <trkpt lat="47.90865" lon="6.83291">
        <ele>824</ele>
        <time>2021-05-20T18:44:32+02:00</time>
      </trkpt>
      <trkpt lat="47.90874" lon="6.83256">
        <ele>824</ele>
        <time>2016-12-06T13:01:00+01:00</time>
      </trkpt>
      <trkpt lat="47.90898" lon="6.83233">
        <ele>832</ele>
        <time>2021-05-20T18:44:42+02:00</time>
      </trkpt>
      <trkpt lat="47.90913" lon="6.83203">
        <ele>833</ele>
        <time>2016-12-06T13:01:34+01:00</time>
      </trkpt>
      <trkpt lat="47.90935" lon="6.8316">
        <ele>834</ele>
        <time>2016-12-06T13:01:51+01:00</time>
      </trkpt>
      <trkpt lat="47.90955" lon="6.83135">
        <ele>837</ele>
        <time>2016-12-06T13:02:22+01:00</time>
      </trkpt>
      <trkpt lat="47.90974" lon="6.83118">
        <ele>839</ele>
        <time>2016-12-06T13:03:09+01:00</time>
      </trkpt>
      <trkpt lat="47.90984" lon="6.83102">
        <ele>839</ele>
        <time>2021-05-20T18:45:07+02:00</time>
      </trkpt>
      <trkpt lat="47.91003" lon="6.83101">
        <ele>843</ele>
        <time>2016-12-06T13:03:18+01:00</time>
      </trkpt>
      <trkpt lat="47.91025" lon="6.831">
        <ele>846</ele>
        <time>2016-12-06T13:03:25+01:00</time>
      </trkpt>
      <trkpt lat="47.91051" lon="6.83103">
        <ele>851</ele>
        <time>2016-12-06T13:03:53+01:00</time>
      </trkpt>
      <trkpt lat="47.91082" lon="6.83105">
        <ele>856</ele>
        <time>2021-05-20T18:45:27+02:00</time>
      </trkpt>
      <trkpt lat="47.91104" lon="6.83108">
        <ele>854</ele>
        <time>2016-12-06T13:04:31+01:00</time>
      </trkpt>
      <trkpt lat="47.91125" lon="6.83124">
        <ele>856</ele>
        <time>2021-05-20T18:45:37+02:00</time>
      </trkpt>
      <trkpt lat="47.91141" lon="6.8314">
        <ele>859</ele>
        <time>2021-05-20T18:45:42+02:00</time>
      </trkpt>
      <trkpt lat="47.91162" lon="6.83175">
        <ele>868</ele>
        <time>2021-05-20T18:45:47+02:00</time>
      </trkpt>
      <trkpt lat="47.9119" lon="6.83196">
        <ele>873</ele>
        <time>2021-05-20T18:45:52+02:00</time>
      </trkpt>
      <trkpt lat="47.91238" lon="6.83207">
        <ele>878</ele>
        <time>2021-05-20T18:45:57+02:00</time>
      </trkpt>
      <trkpt lat="47.91213" lon="6.83227">
        <ele>883</ele>
        <time>2016-12-06T13:11:45+01:00</time>
      </trkpt>
      <trkpt lat="47.91182" lon="6.83238">
        <ele>884</ele>
        <time>2021-05-20T18:46:07+02:00</time>
      </trkpt>
      <trkpt lat="47.9113" lon="6.83238">
        <ele>883</ele>
        <time>2016-12-06T13:13:24+01:00</time>
      </trkpt>
      <trkpt lat="47.91151" lon="6.83257">
        <ele>887</ele>
        <time>2021-05-20T18:46:17+02:00</time>
      </trkpt>
      <trkpt lat="47.91173" lon="6.83271">
        <ele>891</ele>
        <time>2021-05-20T18:46:22+02:00</time>
      </trkpt>
      <trkpt lat="47.91198" lon="6.83282">
        <ele>897</ele>
        <time>2021-05-20T18:46:27+02:00</time>
      </trkpt>
      <trkpt lat="47.91222" lon="6.83287">
        <ele>900</ele>
        <time>2021-05-20T18:46:32+02:00</time>
      </trkpt>
      <trkpt lat="47.9124" lon="6.83289">
        <ele>903</ele>
        <time>2021-05-20T18:46:37+02:00</time>
      </trkpt>
      <trkpt lat="47.91257" lon="6.8328">
        <ele>902</ele>
        <time>2021-05-20T18:46:42+02:00</time>
      </trkpt>
      <trkpt lat="47.91291" lon="6.83264">
        <ele>902</ele>
        <time>2021-05-20T18:46:47+02:00</time>
      </trkpt>
      <trkpt lat="47.91314" lon="6.83256">
        <ele>902</ele>
        <time>2021-05-20T18:46:52+02:00</time>
      </trkpt>
      <trkpt lat="47.91383" lon="6.83243">
        <ele>905</ele>
        <time>2021-05-20T18:46:57+02:00</time>
      </trkpt>
      <trkpt lat="47.91405" lon="6.83233">
        <ele>903</ele>
        <time>2016-12-06T13:13:32+01:00</time>
      </trkpt>
      <trkpt lat="47.91432" lon="6.83223">
        <ele>904</ele>
        <time>2016-12-06T13:13:48+01:00</time>
      </trkpt>
      <trkpt lat="47.91456" lon="6.83214">
        <ele>904</ele>
        <time>2016-12-06T13:14:09+01:00</time>
      </trkpt>
      <trkpt lat="47.91482" lon="6.8321">
        <ele>907</ele>
        <time>2016-12-06T13:14:16+01:00</time>
      </trkpt>
      <trkpt lat="47.91505" lon="6.83208">
        <ele>909</ele>
        <time>2016-12-06T13:14:47+01:00</time>
      </trkpt>
      <trkpt lat="47.91528" lon="6.83204">
        <ele>911</ele>
        <time>2016-12-06T13:15:20+01:00</time>
      </trkpt>
      <trkpt lat="47.91554" lon="6.83204">
        <ele>914</ele>
        <time>2016-12-06T13:15:28+01:00</time>
      </trkpt>
      <trkpt lat="47.91578" lon="6.8321">
        <ele>918</ele>
        <time>2016-12-06T13:15:37+01:00</time>
      </trkpt>
      <trkpt lat="47.91601" lon="6.83214">
        <ele>918</ele>
        <time>2016-12-06T13:16:03+01:00</time>
      </trkpt>
      <trkpt lat="47.91623" lon="6.83227">
        <ele>918</ele>
        <time>2016-12-06T13:16:11+01:00</time>
      </trkpt>
      <trkpt lat="47.91643" lon="6.83245">
        <ele>918</ele>
        <time>2016-12-06T13:16:40+01:00</time>
      </trkpt>
      <trkpt lat="47.9166" lon="6.8327">
        <ele>920</ele>
        <time>2016-12-06T13:16:52+01:00</time>
      </trkpt>
      <trkpt lat="47.9168" lon="6.83291">
        <ele>922</ele>
        <time>2016-12-06T13:17:08+01:00</time>
      </trkpt>
      <trkpt lat="47.91683" lon="6.83272">
        <ele>918</ele>
        <time>2021-05-20T18:48:07+02:00</time>
      </trkpt>
      <trkpt lat="47.91692" lon="6.8326">
        <ele>915</ele>
        <time>2016-12-06T13:19:30+01:00</time>
      </trkpt>
      <trkpt lat="47.91697" lon="6.83234">
        <ele>912</ele>
        <time>2016-12-06T13:19:52+01:00</time>
      </trkpt>
      <trkpt lat="47.91702" lon="6.83198">
        <ele>911</ele>
        <time>2016-12-06T13:20:14+01:00</time>
      </trkpt>
      <trkpt lat="47.91706" lon="6.83168">
        <ele>911</ele>
        <time>2016-12-06T13:20:38+01:00</time>
      </trkpt>
      <trkpt lat="47.91709" lon="6.83133">
        <ele>915</ele>
        <time>2016-12-06T13:21:06+01:00</time>
      </trkpt>
      <trkpt lat="47.91714" lon="6.83101">
        <ele>919</ele>
        <time>2016-12-06T13:21:32+01:00</time>
      </trkpt>
      <trkpt lat="47.9172" lon="6.83068">
        <ele>923</ele>
        <time>2016-12-06T13:22:01+01:00</time>
      </trkpt>
      <trkpt lat="47.91725" lon="6.83035">
        <ele>928</ele>
        <time>2016-12-06T13:22:27+01:00</time>
      </trkpt>
      <trkpt lat="47.91727" lon="6.83001">
        <ele>934</ele>
        <time>2016-12-06T13:23:06+01:00</time>
      </trkpt>
      <trkpt lat="47.91728" lon="6.82967">
        <ele>940</ele>
        <time>2016-12-06T13:23:33+01:00</time>
      </trkpt>
      <trkpt lat="47.91731" lon="6.82932">
        <ele>946</ele>
        <time>2016-12-06T13:24:03+01:00</time>
      </trkpt>
      <trkpt lat="47.91712" lon="6.82949">
        <ele>947</ele>
        <time>2016-12-06T13:24:34+01:00</time>
      </trkpt>
      <trkpt lat="47.91693" lon="6.82966">
        <ele>948</ele>
        <time>2016-12-06T13:25:18+01:00</time>
      </trkpt>
      <trkpt lat="47.91672" lon="6.8298">
        <ele>950</ele>
        <time>2016-12-06T13:25:45+01:00</time>
      </trkpt>
      <trkpt lat="47.9165" lon="6.82986">
        <ele>950</ele>
        <time>2016-12-06T13:26:12+01:00</time>
      </trkpt>
      <trkpt lat="47.91629" lon="6.82972">
        <ele>953</ele>
        <time>2016-12-06T13:26:45+01:00</time>
      </trkpt>
      <trkpt lat="47.91608" lon="6.82959">
        <ele>957</ele>
        <time>2016-12-06T13:27:17+01:00</time>
      </trkpt>
      <trkpt lat="47.91588" lon="6.82943">
        <ele>962</ele>
        <time>2016-12-06T13:27:46+01:00</time>
      </trkpt>
      <trkpt lat="47.9157" lon="6.82922">
        <ele>964</ele>
        <time>2016-12-06T13:28:13+01:00</time>
      </trkpt>
      <trkpt lat="47.91558" lon="6.82893">
        <ele>967</ele>
        <time>2016-12-06T13:28:48+01:00</time>
      </trkpt>
      <trkpt lat="47.91545" lon="6.82863">
        <ele>968</ele>
        <time>2016-12-06T13:29:07+01:00</time>
      </trkpt>
      <trkpt lat="47.91533" lon="6.82835">
        <ele>971</ele>
        <time>2016-12-06T13:29:28+01:00</time>
      </trkpt>
      <trkpt lat="47.91525" lon="6.82822">
        <ele>970</ele>
        <time>2021-05-20T18:50:02+02:00</time>
      </trkpt>
      <trkpt lat="47.91525" lon="6.82804">
        <ele>971</ele>
        <time>2016-12-06T13:29:48+01:00</time>
      </trkpt>
      <trkpt lat="47.91528" lon="6.82769">
        <ele>974</ele>
        <time>2016-12-06T13:30:15+01:00</time>
      </trkpt>
      <trkpt lat="47.91537" lon="6.82737">
        <ele>976</ele>
        <time>2016-12-06T13:30:38+01:00</time>
      </trkpt>
      <trkpt lat="47.91559" lon="6.82739">
        <ele>981</ele>
        <time>2016-12-06T13:31:18+01:00</time>
      </trkpt>
      <trkpt lat="47.9158" lon="6.82743">
        <ele>985</ele>
        <time>2016-12-06T13:32:42+01:00</time>
      </trkpt>
      <trkpt lat="47.91565" lon="6.8274">
        <ele>982</ele>
        <time>2016-12-06T13:54:43+01:00</time>
      </trkpt>
      <trkpt lat="47.91537" lon="6.82731">
        <ele>976</ele>
        <time>2016-12-06T13:55:17+01:00</time>
      </trkpt>
      <trkpt lat="47.91539" lon="6.82712">
        <ele>976</ele>
        <time>2021-05-20T18:50:42+02:00</time>
      </trkpt>
      <trkpt lat="47.91547" lon="6.82683">
        <ele>977</ele>
        <time>2021-05-20T18:50:47+02:00</time>
      </trkpt>
      <trkpt lat="47.91547" lon="6.82653">
        <ele>976</ele>
        <time>2021-05-20T18:50:52+02:00</time>
      </trkpt>
      <trkpt lat="47.91547" lon="6.82623">
        <ele>974</ele>
        <time>2016-12-06T13:55:33+01:00</time>
      </trkpt>
      <trkpt lat="47.91541" lon="6.826">
        <ele>972</ele>
        <time>2016-12-06T13:55:49+01:00</time>
      </trkpt>
      <trkpt lat="47.91541" lon="6.82588">
        <ele>971</ele>
        <time>2016-12-06T13:56:15+01:00</time>
      </trkpt>
      <trkpt lat="47.91545" lon="6.82558">
        <ele>969</ele>
        <time>2016-12-06T13:56:38+01:00</time>
      </trkpt>
      <trkpt lat="47.91546" lon="6.82524">
        <ele>965</ele>
        <time>2016-12-06T13:56:56+01:00</time>
      </trkpt>
      <trkpt lat="47.91542" lon="6.82487">
        <ele>961</ele>
        <time>2016-12-06T13:57:36+01:00</time>
      </trkpt>
      <trkpt lat="47.91546" lon="6.82453">
        <ele>961</ele>
        <time>2016-12-06T13:57:55+01:00</time>
      </trkpt>
      <trkpt lat="47.91547" lon="6.82423">
        <ele>960</ele>
        <time>2016-12-06T13:58:15+01:00</time>
      </trkpt>
      <trkpt lat="47.91542" lon="6.8239">
        <ele>957</ele>
        <time>2016-12-06T13:58:38+01:00</time>
      </trkpt>
      <trkpt lat="47.91534" lon="6.82359">
        <ele>954</ele>
        <time>2016-12-06T13:59:56+01:00</time>
      </trkpt>
      <trkpt lat="47.91522" lon="6.82331">
        <ele>951</ele>
        <time>2016-12-06T14:00:11+01:00</time>
      </trkpt>
      <trkpt lat="47.91511" lon="6.82306">
        <ele>949</ele>
        <time>2016-12-06T14:00:33+01:00</time>
      </trkpt>
      <trkpt lat="47.91497" lon="6.82283">
        <ele>948</ele>
        <time>2016-12-06T14:00:55+01:00</time>
      </trkpt>
      <trkpt lat="47.91479" lon="6.82257">
        <ele>943</ele>
        <time>2016-12-06T14:01:17+01:00</time>
      </trkpt>
      <trkpt lat="47.91458" lon="6.82244">
        <ele>937</ele>
        <time>2016-12-06T14:01:45+01:00</time>
      </trkpt>
      <trkpt lat="47.91435" lon="6.82227">
        <ele>932</ele>
        <time>2016-12-06T14:02:16+01:00</time>
      </trkpt>
      <trkpt lat="47.91423" lon="6.822">
        <ele>930</ele>
        <time>2016-12-06T14:02:34+01:00</time>
      </trkpt>
      <trkpt lat="47.91411" lon="6.82171">
        <ele>929</ele>
        <time>2016-12-06T14:02:55+01:00</time>
      </trkpt>
      <trkpt lat="47.91389" lon="6.82162">
        <ele>922</ele>
        <time>2021-05-20T18:52:27+02:00</time>
      </trkpt>
      <trkpt lat="47.91371" lon="6.82166">
        <ele>917</ele>
        <time>2016-12-06T14:03:16+01:00</time>
      </trkpt>
      <trkpt lat="47.91355" lon="6.82177">
        <ele>911</ele>
        <time>2021-05-20T18:52:37+02:00</time>
      </trkpt>
      <trkpt lat="47.91356" lon="6.82158">
        <ele>912</ele>
        <time>2016-12-06T14:03:40+01:00</time>
      </trkpt>
      <trkpt lat="47.91365" lon="6.82117">
        <ele>912</ele>
        <time>2016-12-06T14:07:42+01:00</time>
      </trkpt>
      <trkpt lat="47.91372" lon="6.82083">
        <ele>911</ele>
        <time>2016-12-06T14:08:04+01:00</time>
      </trkpt>
      <trkpt lat="47.91378" lon="6.82051">
        <ele>907</ele>
        <time>2016-12-06T14:08:31+01:00</time>
      </trkpt>
      <trkpt lat="47.91384" lon="6.82015">
        <ele>901</ele>
        <time>2016-12-06T14:08:52+01:00</time>
      </trkpt>
      <trkpt lat="47.91392" lon="6.81979">
        <ele>897</ele>
        <time>2016-12-06T14:09:13+01:00</time>
      </trkpt>
      <trkpt lat="47.91403" lon="6.81957">
        <ele>896</ele>
        <time>2016-12-06T14:09:35+01:00</time>
      </trkpt>
      <trkpt lat="47.91415" lon="6.81927">
        <ele>894</ele>
        <time>2016-12-06T14:09:51+01:00</time>
      </trkpt>
      <trkpt lat="47.91426" lon="6.81891">
        <ele>889</ele>
        <time>2016-12-06T14:10:13+01:00</time>
      </trkpt>
      <trkpt lat="47.91436" lon="6.8186">
        <ele>884</ele>
        <time>2016-12-06T14:10:30+01:00</time>
      </trkpt>
      <trkpt lat="47.91448" lon="6.81832">
        <ele>881</ele>
        <time>2016-12-06T14:10:52+01:00</time>
      </trkpt>
      <trkpt lat="47.91463" lon="6.81802">
        <ele>876</ele>
        <time>2016-12-06T14:11:14+01:00</time>
      </trkpt>
      <trkpt lat="47.91481" lon="6.8178">
        <ele>873</ele>
        <time>2016-12-06T14:11:37+01:00</time>
      </trkpt>
      <trkpt lat="47.91503" lon="6.8177">
        <ele>871</ele>
        <time>2016-12-06T14:11:56+01:00</time>
      </trkpt>
      <trkpt lat="47.91526" lon="6.81783">
        <ele>870</ele>
        <time>2016-12-06T14:12:21+01:00</time>
      </trkpt>
      <trkpt lat="47.91548" lon="6.81794">
        <ele>868</ele>
        <time>2016-12-06T14:12:50+01:00</time>
      </trkpt>
      <trkpt lat="47.91568" lon="6.81806">
        <ele>866</ele>
        <time>2016-12-06T14:13:08+01:00</time>
      </trkpt>
      <trkpt lat="47.91586" lon="6.81823">
        <ele>865</ele>
        <time>2016-12-06T14:13:28+01:00</time>
      </trkpt>
      <trkpt lat="47.91606" lon="6.81843">
        <ele>865</ele>
        <time>2016-12-06T14:13:48+01:00</time>
      </trkpt>
      <trkpt lat="47.9163" lon="6.81861">
        <ele>863</ele>
        <time>2016-12-06T14:14:07+01:00</time>
      </trkpt>
      <trkpt lat="47.91653" lon="6.81882">
        <ele>862</ele>
        <time>2016-12-06T14:14:30+01:00</time>
      </trkpt>
      <trkpt lat="47.91671" lon="6.81905">
        <ele>862</ele>
        <time>2016-12-06T14:14:48+01:00</time>
      </trkpt>
      <trkpt lat="47.91684" lon="6.8193">
        <ele>862</ele>
        <time>2016-12-06T14:15:07+01:00</time>
      </trkpt>
      <trkpt lat="47.91699" lon="6.81954">
        <ele>860</ele>
        <time>2016-12-06T14:15:25+01:00</time>
      </trkpt>
      <trkpt lat="47.91716" lon="6.81983">
        <ele>857</ele>
        <time>2016-12-06T14:15:48+01:00</time>
      </trkpt>
      <trkpt lat="47.91731" lon="6.82004">
        <ele>853</ele>
        <time>2016-12-06T14:16:04+01:00</time>
      </trkpt>
      <trkpt lat="47.91745" lon="6.82023">
        <ele>850</ele>
        <time>2016-12-06T14:16:25+01:00</time>
      </trkpt>
      <trkpt lat="47.91765" lon="6.82049">
        <ele>848</ele>
        <time>2016-12-06T14:16:43+01:00</time>
      </trkpt>
      <trkpt lat="47.91781" lon="6.8207">
        <ele>846</ele>
        <time>2016-12-06T14:17:09+01:00</time>
      </trkpt>
      <trkpt lat="47.918" lon="6.82091">
        <ele>843</ele>
        <time>2016-12-06T14:17:23+01:00</time>
      </trkpt>
      <trkpt lat="47.91818" lon="6.82108">
        <ele>838</ele>
        <time>2016-12-06T14:17:45+01:00</time>
      </trkpt>
      <trkpt lat="47.91835" lon="6.82132">
        <ele>834</ele>
        <time>2016-12-06T14:18:01+01:00</time>
      </trkpt>
      <trkpt lat="47.91849" lon="6.82156">
        <ele>832</ele>
        <time>2016-12-06T14:18:28+01:00</time>
      </trkpt>
      <trkpt lat="47.91837" lon="6.82103">
        <ele>829</ele>
        <time>2016-12-06T14:18:48+01:00</time>
      </trkpt>
      <trkpt lat="47.9183" lon="6.8207">
        <ele>827</ele>
        <time>2016-12-06T14:19:08+01:00</time>
      </trkpt>
      <trkpt lat="47.91823" lon="6.82036">
        <ele>825</ele>
        <time>2016-12-06T14:19:23+01:00</time>
      </trkpt>
      <trkpt lat="47.91816" lon="6.82001">
        <ele>822</ele>
        <time>2016-12-06T14:19:38+01:00</time>
      </trkpt>
      <trkpt lat="47.9181" lon="6.81972">
        <ele>820</ele>
        <time>2016-12-06T14:19:56+01:00</time>
      </trkpt>
      <trkpt lat="47.91803" lon="6.81945">
        <ele>818</ele>
        <time>2016-12-06T14:20:12+01:00</time>
      </trkpt>
      <trkpt lat="47.91797" lon="6.8191">
        <ele>816</ele>
        <time>2016-12-06T14:20:33+01:00</time>
      </trkpt>
      <trkpt lat="47.91793" lon="6.81875">
        <ele>813</ele>
        <time>2016-12-06T14:20:52+01:00</time>
      </trkpt>
      <trkpt lat="47.91788" lon="6.81841">
        <ele>810</ele>
        <time>2016-12-06T14:21:13+01:00</time>
      </trkpt>
      <trkpt lat="47.9178" lon="6.8181">
        <ele>808</ele>
        <time>2016-12-06T14:21:30+01:00</time>
      </trkpt>
      <trkpt lat="47.9177" lon="6.81779">
        <ele>807</ele>
        <time>2016-12-06T14:21:46+01:00</time>
      </trkpt>
      <trkpt lat="47.91762" lon="6.81741">
        <ele>805</ele>
        <time>2016-12-06T14:22:04+01:00</time>
      </trkpt>
      <trkpt lat="47.91756" lon="6.81713">
        <ele>802</ele>
        <time>2016-12-06T14:22:22+01:00</time>
      </trkpt>
      <trkpt lat="47.91747" lon="6.81679">
        <ele>800</ele>
        <time>2016-12-06T14:22:42+01:00</time>
      </trkpt>
      <trkpt lat="47.9174" lon="6.81648">
        <ele>796</ele>
        <time>2016-12-06T14:22:59+01:00</time>
      </trkpt>
      <trkpt lat="47.91735" lon="6.81613">
        <ele>792</ele>
        <time>2016-12-06T14:23:17+01:00</time>
      </trkpt>
      <trkpt lat="47.9173" lon="6.81578">
        <ele>788</ele>
        <time>2016-12-06T14:23:36+01:00</time>
      </trkpt>
      <trkpt lat="47.91724" lon="6.81541">
        <ele>784</ele>
        <time>2016-12-06T14:23:55+01:00</time>
      </trkpt>
      <trkpt lat="47.91715" lon="6.81512">
        <ele>783</ele>
        <time>2016-12-06T14:24:08+01:00</time>
      </trkpt>
      <trkpt lat="47.91707" lon="6.81481">
        <ele>780</ele>
        <time>2016-12-06T14:24:23+01:00</time>
      </trkpt>
      <trkpt lat="47.91703" lon="6.81445">
        <ele>777</ele>
        <time>2016-12-06T14:24:43+01:00</time>
      </trkpt>
      <trkpt lat="47.91705" lon="6.81411">
        <ele>774</ele>
        <time>2016-12-06T14:25:03+01:00</time>
      </trkpt>
      <trkpt lat="47.91709" lon="6.81374">
        <ele>771</ele>
        <time>2016-12-06T14:25:20+01:00</time>
      </trkpt>
      <trkpt lat="47.91714" lon="6.81341">
        <ele>769</ele>
        <time>2016-12-06T14:25:42+01:00</time>
      </trkpt>
      <trkpt lat="47.91715" lon="6.81306">
        <ele>766</ele>
        <time>2016-12-06T14:26:00+01:00</time>
      </trkpt>
      <trkpt lat="47.91717" lon="6.81274">
        <ele>763</ele>
        <time>2016-12-06T14:26:16+01:00</time>
      </trkpt>
      <trkpt lat="47.91718" lon="6.81254">
        <ele>762</ele>
        <time>2021-05-20T18:57:37+02:00</time>
      </trkpt>
      <trkpt lat="47.91729" lon="6.81242">
        <ele>758</ele>
        <time>2016-12-06T14:26:36+01:00</time>
      </trkpt>
      <trkpt lat="47.91745" lon="6.81251">
        <ele>756</ele>
        <time>2016-12-06T14:27:30+01:00</time>
      </trkpt>
      <trkpt lat="47.91761" lon="6.81282">
        <ele>755</ele>
        <time>2016-12-06T14:27:47+01:00</time>
      </trkpt>
      <trkpt lat="47.91782" lon="6.81319">
        <ele>751</ele>
        <time>2021-05-20T18:57:57+02:00</time>
      </trkpt>
      <trkpt lat="47.9182" lon="6.81365">
        <ele>744</ele>
        <time>2016-12-06T14:28:06+01:00</time>
      </trkpt>
      <trkpt lat="47.91849" lon="6.81403">
        <ele>740</ele>
        <time>2021-05-20T18:58:07+02:00</time>
      </trkpt>
      <trkpt lat="47.91873" lon="6.81446">
        <ele>738</ele>
        <time>2016-12-06T14:28:25+01:00</time>
      </trkpt>
      <trkpt lat="47.91897" lon="6.81482">
        <ele>736</ele>
        <time>2021-05-20T18:58:17+02:00</time>
      </trkpt>
      <trkpt lat="47.91887" lon="6.81438">
        <ele>734</ele>
        <time>2021-05-20T18:58:22+02:00</time>
      </trkpt>
      <trkpt lat="47.91874" lon="6.8139">
        <ele>733</ele>
        <time>2021-05-20T18:58:27+02:00</time>
      </trkpt>
      <trkpt lat="47.9186" lon="6.81345">
        <ele>732</ele>
        <time>2021-05-20T18:58:32+02:00</time>
      </trkpt>
      <trkpt lat="47.91853" lon="6.81274">
        <ele>731</ele>
        <time>2021-05-20T18:58:37+02:00</time>
      </trkpt>
      <trkpt lat="47.91844" lon="6.81194">
        <ele>730</ele>
        <time>2021-05-20T18:58:42+02:00</time>
      </trkpt>
      <trkpt lat="47.91825" lon="6.81113">
        <ele>729</ele>
        <time>2016-12-06T14:28:44+01:00</time>
      </trkpt>
      <trkpt lat="47.91816" lon="6.81078">
        <ele>727</ele>
        <time>2016-12-06T14:29:07+01:00</time>
      </trkpt>
      <trkpt lat="47.91771" lon="6.80996">
        <ele>727</ele>
        <time>2016-12-06T14:29:25+01:00</time>
      </trkpt>
      <trkpt lat="47.91757" lon="6.8097">
        <ele>725</ele>
        <time>2016-12-06T14:30:00+01:00</time>
      </trkpt>
      <trkpt lat="47.91746" lon="6.80939">
        <ele>723</ele>
        <time>2016-12-06T14:30:28+01:00</time>
      </trkpt>
      <trkpt lat="47.91728" lon="6.80916">
        <ele>721</ele>
        <time>2016-12-06T14:30:47+01:00</time>
      </trkpt>
      <trkpt lat="47.91713" lon="6.80896">
        <ele>719</ele>
        <time>2016-12-06T14:31:04+01:00</time>
      </trkpt>
      <trkpt lat="47.9169" lon="6.80881">
        <ele>718</ele>
        <time>2016-12-06T14:31:24+01:00</time>
      </trkpt>
      <trkpt lat="47.9168" lon="6.80872">
        <ele>717</ele>
        <time>2021-05-20T18:59:27+02:00</time>
      </trkpt>
      <trkpt lat="47.91674" lon="6.80849">
        <ele>715</ele>
        <time>2016-12-06T14:31:47+01:00</time>
      </trkpt>
      <trkpt lat="47.91661" lon="6.80818">
        <ele>713</ele>
        <time>2016-12-06T14:32:01+01:00</time>
      </trkpt>
      <trkpt lat="47.91647" lon="6.8079">
        <ele>712</ele>
        <time>2016-12-06T14:32:18+01:00</time>
      </trkpt>
      <trkpt lat="47.91643" lon="6.80762">
        <ele>716</ele>
        <time>2016-12-06T14:32:40+01:00</time>
      </trkpt>
      <trkpt lat="47.91638" lon="6.8073">
        <ele>718</ele>
        <time>2016-12-06T14:33:03+01:00</time>
      </trkpt>
      <trkpt lat="47.91663" lon="6.80697">
        <ele>723</ele>
        <time>2016-12-06T14:33:24+01:00</time>
      </trkpt>
      <trkpt lat="47.9168" lon="6.80694">
        <ele>719</ele>
        <time>2021-05-20T19:00:02+02:00</time>
      </trkpt>
      <trkpt lat="47.91692" lon="6.80668">
        <ele>715</ele>
        <time>2021-05-20T19:00:07+02:00</time>
      </trkpt>
      <trkpt lat="47.91697" lon="6.8061">
        <ele>709</ele>
        <time>2021-05-20T19:00:12+02:00</time>
      </trkpt>
      <trkpt lat="47.917" lon="6.80571">
        <ele>702</ele>
        <time>2021-05-20T19:00:17+02:00</time>
      </trkpt>
      <trkpt lat="47.91691" lon="6.80532">
        <ele>700</ele>
        <time>2021-05-20T19:00:22+02:00</time>
      </trkpt>
      <trkpt lat="47.91651" lon="6.80507">
        <ele>705</ele>
        <time>2016-12-06T14:33:43+01:00</time>
      </trkpt>
      <trkpt lat="47.91625" lon="6.80498">
        <ele>705</ele>
        <time>2016-12-06T14:33:57+01:00</time>
      </trkpt>
      <trkpt lat="47.91601" lon="6.80496">
        <ele>705</ele>
        <time>2016-12-06T14:34:14+01:00</time>
      </trkpt>
      <trkpt lat="47.91574" lon="6.80504">
        <ele>705</ele>
        <time>2016-12-06T14:34:38+01:00</time>
      </trkpt>
      <trkpt lat="47.91541" lon="6.8052">
        <ele>703</ele>
        <time>2016-12-06T14:35:22+01:00</time>
      </trkpt>
      <trkpt lat="47.91537" lon="6.80487">
        <ele>701</ele>
        <time>2016-12-06T14:35:52+01:00</time>
      </trkpt>
      <trkpt lat="47.91528" lon="6.80461">
        <ele>700</ele>
        <time>2016-12-06T14:36:14+01:00</time>
      </trkpt>
      <trkpt lat="47.91508" lon="6.80455">
        <ele>699</ele>
        <time>2016-12-06T14:36:25+01:00</time>
      </trkpt>
      <trkpt lat="47.9149" lon="6.80459">
        <ele>697</ele>
        <time>2021-05-20T19:01:07+02:00</time>
      </trkpt>
      <trkpt lat="47.91479" lon="6.80449">
        <ele>695</ele>
        <time>2021-05-20T19:01:12+02:00</time>
      </trkpt>
      <trkpt lat="47.91465" lon="6.80446">
        <ele>686</ele>
        <time>2021-05-20T19:01:17+02:00</time>
      </trkpt>
      <trkpt lat="47.91453" lon="6.80414">
        <ele>683</ele>
        <time>2021-05-20T19:01:22+02:00</time>
      </trkpt>
      <trkpt lat="47.91442" lon="6.80394">
        <ele>680</ele>
        <time>2021-05-20T19:01:27+02:00</time>
      </trkpt>
      <trkpt lat="47.91439" lon="6.80377">
        <ele>677</ele>
        <time>2021-05-20T19:01:32+02:00</time>
      </trkpt>
      <trkpt lat="47.91423" lon="6.80377">
        <ele>676</ele>
        <time>2021-05-20T19:01:37+02:00</time>
      </trkpt>
      <trkpt lat="47.91408" lon="6.80386">
        <ele>673</ele>
        <time>2016-12-06T14:52:02+01:00</time>
      </trkpt>
      <trkpt lat="47.91406" lon="6.80404">
        <ele>674</ele>
        <time>2021-05-20T19:01:47+02:00</time>
      </trkpt>
      <trkpt lat="47.91409" lon="6.80421">
        <ele>676</ele>
        <time>2016-12-06T14:52:32+01:00</time>
      </trkpt>
      <trkpt lat="47.91413" lon="6.80453">
        <ele>675</ele>
        <time>2016-12-06T14:52:47+01:00</time>
      </trkpt>
      <trkpt lat="47.91407" lon="6.80453">
        <ele>673</ele>
        <time>2021-05-20T19:02:02+02:00</time>
      </trkpt>
      <trkpt lat="47.91389" lon="6.80427">
        <ele>668</ele>
        <time>2016-12-06T14:53:22+01:00</time>
      </trkpt>
      <trkpt lat="47.91387" lon="6.80433">
        <ele>667</ele>
        <time>2021-05-20T19:02:12+02:00</time>
      </trkpt>
      <trkpt lat="47.91388" lon="6.80445">
        <ele>666</ele>
        <time>2021-05-20T19:02:17+02:00</time>
      </trkpt>
      <trkpt lat="47.91389" lon="6.80464">
        <ele>665</ele>
        <time>2016-12-06T14:53:49+01:00</time>
      </trkpt>
      <trkpt lat="47.91392" lon="6.80483">
        <ele>665</ele>
        <time>2016-12-06T14:54:04+01:00</time>
      </trkpt>
      <trkpt lat="47.91395" lon="6.80497">
        <ele>666</ele>
        <time>2016-12-06T14:54:42+01:00</time>
      </trkpt>
      <trkpt lat="47.9139" lon="6.80495">
        <ele>664</ele>
        <time>2021-05-20T19:02:37+02:00</time>
      </trkpt>
      <trkpt lat="47.91365" lon="6.80434">
        <ele>658</ele>
        <time>2016-12-06T14:55:05+01:00</time>
      </trkpt>
      <trkpt lat="47.91358" lon="6.80402">
        <ele>655</ele>
        <time>2016-12-06T14:55:18+01:00</time>
      </trkpt>
      <trkpt lat="47.9136" lon="6.80368">
        <ele>653</ele>
        <time>2016-12-06T14:55:39+01:00</time>
      </trkpt>
      <trkpt lat="47.91363" lon="6.80332">
        <ele>651</ele>
        <time>2016-12-06T14:56:00+01:00</time>
      </trkpt>
      <trkpt lat="47.91362" lon="6.8032">
        <ele>648</ele>
        <time>2016-12-06T14:56:19+01:00</time>
      </trkpt>
      <trkpt lat="47.91357" lon="6.80318">
        <ele>646</ele>
        <time>2016-12-06T14:56:52+01:00</time>
      </trkpt>
      <trkpt lat="47.91344" lon="6.80345">
        <ele>645</ele>
        <time>2021-05-20T19:03:12+02:00</time>
      </trkpt>
      <trkpt lat="47.91334" lon="6.8037">
        <ele>643</ele>
        <time>2021-05-20T19:03:17+02:00</time>
      </trkpt>
      <trkpt lat="47.91323" lon="6.80378">
        <ele>639</ele>
        <time>2016-12-06T14:57:08+01:00</time>
      </trkpt>
      <trkpt lat="47.91323" lon="6.80347">
        <ele>638</ele>
        <time>2021-05-20T19:03:27+02:00</time>
      </trkpt>
      <trkpt lat="47.91334" lon="6.80321">
        <ele>638</ele>
        <time>2016-12-06T14:57:23+01:00</time>
      </trkpt>
      <trkpt lat="47.91337" lon="6.80301">
        <ele>636</ele>
        <time>2016-12-06T14:57:47+01:00</time>
      </trkpt>
      <trkpt lat="47.91346" lon="6.80275">
        <ele>633</ele>
        <time>2016-12-06T14:57:59+01:00</time>
      </trkpt>
      <trkpt lat="47.91355" lon="6.80256">
        <ele>632</ele>
        <time>2016-12-06T14:58:15+01:00</time>
      </trkpt>
      <trkpt lat="47.91378" lon="6.80244">
        <ele>635</ele>
        <time>2016-12-06T14:58:32+01:00</time>
      </trkpt>
      <trkpt lat="47.91391" lon="6.80219">
        <ele>633</ele>
        <time>2016-12-06T14:58:58+01:00</time>
      </trkpt>
      <trkpt lat="47.91398" lon="6.80185">
        <ele>626</ele>
        <time>2016-12-06T14:59:13+01:00</time>
      </trkpt>
      <trkpt lat="47.91403" lon="6.80156">
        <ele>621</ele>
        <time>2016-12-06T14:59:31+01:00</time>
      </trkpt>
      <trkpt lat="47.91402" lon="6.80127">
        <ele>615</ele>
        <time>2016-12-06T14:59:48+01:00</time>
      </trkpt>
    </trkseg>
  </trk>
</gpx>